createdAt,value
2018-06-14T00:01:58.516Z,99616.45
2018-06-14T00:04:28.383Z,99620.23
2018-06-14T00:06:58.113Z,99617.27
2018-06-14T00:09:27.957Z,99609.64
2018-06-14T00:11:57.531Z,99614.19
2018-06-14T00:14:27.251Z,99612.67
2018-06-14T00:16:57.156Z,99614.19
2018-06-14T00:19:26.571Z,99617.00
2018-06-14T00:21:56.299Z,99620.61
2018-06-14T00:24:26.097Z,99613.16
2018-06-14T00:26:55.816Z,99612.52
2018-06-14T00:29:25.679Z,99616.11
2018-06-14T00:31:55.545Z,99621.57
2018-06-14T00:34:25.362Z,99623.74
2018-06-14T00:36:55.055Z,99623.97
2018-06-14T00:39:25.011Z,99634.17
2018-06-14T00:41:54.731Z,99636.33
2018-06-14T00:44:24.450Z,99638.23
2018-06-14T00:46:54.239Z,99635.37
2018-06-14T00:49:24.002Z,99638.98
2018-06-14T00:51:53.824Z,99642.38
2018-06-14T00:54:23.637Z,99644.51
2018-06-14T00:57:04.648Z,99645.98
2018-06-14T00:59:34.272Z,99647.66
2018-06-14T01:02:04.055Z,99645.64
2018-06-14T01:04:33.537Z,99650.89
2018-06-14T01:07:03.476Z,99646.96
2018-06-14T01:09:33.530Z,99646.81
2018-06-14T01:12:03.620Z,99649.89
2018-06-14T01:14:33.535Z,99660.09
2018-06-14T01:17:04.071Z,99645.75
2018-06-14T01:19:33.768Z,99651.31
2018-06-14T01:22:03.939Z,99649.72
2018-06-14T01:24:33.759Z,99648.13
2018-06-14T01:27:07.246Z,99649.13
2018-06-14T01:29:37.200Z,99657.30
2018-06-14T01:32:06.890Z,99655.27
2018-06-14T01:34:36.921Z,99661.97
2018-06-14T01:37:07.108Z,99663.24
2018-06-14T01:39:36.707Z,99662.68
2018-06-14T01:42:06.522Z,99657.80
2018-06-14T01:44:36.252Z,99659.45
2018-06-14T01:47:06.257Z,99666.43
2018-06-14T01:49:36.180Z,99668.59
2018-06-14T01:52:06.126Z,99670.72
2018-06-14T01:54:36.010Z,99670.36
2018-06-14T01:57:05.831Z,99670.75
2018-06-14T01:59:35.674Z,99675.74
2018-06-14T02:02:06.075Z,99679.50
2018-06-14T02:04:35.802Z,99676.70
2018-06-14T02:07:05.616Z,99672.91
2018-06-14T02:09:35.117Z,99671.14
2018-06-14T02:12:05.821Z,99673.77
2018-06-14T02:14:35.874Z,99671.95
2018-06-14T02:17:05.627Z,99676.66
2018-06-14T02:19:35.316Z,99675.77
2018-06-14T02:22:05.314Z,99669.61
2018-06-14T02:24:35.130Z,99676.55
2018-06-14T02:27:04.909Z,99678.39
2018-06-14T02:29:34.690Z,99681.32
2018-06-14T02:32:04.646Z,99680.57
2018-06-14T02:34:34.476Z,99689.26
2018-06-14T02:37:04.289Z,99693.58
2018-06-14T02:39:34.059Z,99689.26
2018-06-14T02:42:03.915Z,99694.14
2018-06-14T02:44:33.653Z,99681.59
2018-06-14T02:47:03.391Z,99680.81
2018-06-14T02:49:33.292Z,99687.74
2018-06-14T02:52:02.727Z,99679.07
2018-06-14T02:54:32.666Z,99682.65
2018-06-14T02:57:02.948Z,99680.28
2018-06-14T02:59:32.703Z,99682.94
2018-06-14T03:02:02.492Z,99687.63
2018-06-14T03:04:32.412Z,99693.69
2018-06-14T03:07:02.451Z,99689.45
2018-06-14T03:09:32.146Z,99699.06
2018-06-14T03:12:01.952Z,99700.30
2018-06-14T03:14:31.649Z,99701.11
2018-06-14T03:17:02.009Z,99695.45
2018-06-14T03:19:31.693Z,99702.33
2018-06-14T03:22:01.489Z,99702.73
2018-06-14T03:24:31.231Z,99703.90
2018-06-14T03:27:01.037Z,99709.67
2018-06-14T03:29:30.776Z,99709.14
2018-06-14T03:32:00.960Z,99714.85
2018-06-14T03:34:31.578Z,99715.88
2018-06-14T03:37:01.791Z,99718.66
2018-06-14T03:39:31.653Z,99719.05
2018-06-14T03:42:07.393Z,99717.24
2018-06-14T03:44:38.168Z,99718.94
2018-06-14T03:47:08.635Z,99718.48
2018-06-14T03:49:39.827Z,99720.89
2018-06-14T03:52:10.806Z,99724.50
2018-06-14T03:54:40.790Z,99729.88
2018-06-14T03:57:10.559Z,99729.20
2018-06-14T03:59:40.314Z,99728.71
2018-06-14T04:02:09.762Z,99733.00
2018-06-14T04:04:39.752Z,99734.06
2018-06-14T04:07:09.698Z,99739.16
2018-06-14T04:09:39.689Z,99740.94
2018-06-14T04:12:09.387Z,99740.61
2018-06-14T04:14:39.154Z,99736.58
2018-06-14T04:17:09.564Z,99744.44
2018-06-14T04:19:39.237Z,99749.83
2018-06-14T04:22:08.890Z,99746.14
2018-06-14T04:24:38.617Z,99751.45
2018-06-14T04:27:08.304Z,99747.48
2018-06-14T04:29:38.694Z,99749.70
2018-06-14T04:32:08.489Z,99747.55
2018-06-14T04:34:38.190Z,99746.80
2018-06-14T04:37:07.925Z,99748.81
2018-06-14T04:39:37.666Z,99747.50
2018-06-14T04:42:07.671Z,99748.41
2018-06-14T04:44:37.500Z,99753.42
2018-06-14T04:47:07.379Z,99752.33
2018-06-14T04:49:37.744Z,99744.98
2018-06-14T04:52:08.175Z,99755.26
2018-06-14T04:54:38.131Z,99757.15
2018-06-14T04:57:07.614Z,99750.65
2018-06-14T04:59:37.303Z,99751.30
2018-06-14T05:02:07.297Z,99759.03
2018-06-14T05:04:37.104Z,99758.59
2018-06-14T05:07:07.126Z,99760.72
2018-06-14T05:09:36.905Z,99751.25
2018-06-14T05:12:06.782Z,99747.93
2018-06-14T05:14:36.525Z,99750.77
2018-06-14T05:17:06.447Z,99747.80
2018-06-14T05:19:36.347Z,99749.15
2018-06-14T05:22:06.435Z,99753.63
2018-06-14T05:24:36.691Z,99756.05
2018-06-14T05:27:07.098Z,99754.32
2018-06-14T05:29:36.873Z,99764.56
2018-06-14T05:32:06.865Z,99763.13
2018-06-14T05:34:36.767Z,99767.05
2018-06-14T05:37:06.634Z,99755.62
2018-06-14T05:39:37.059Z,99760.05
2018-06-14T05:42:07.392Z,99748.87
2018-06-14T05:44:37.925Z,99761.99
2018-06-14T05:47:08.194Z,99758.37
2018-06-14T05:49:38.831Z,99769.09
2018-06-14T05:52:09.238Z,99767.70
2018-06-14T05:54:39.834Z,99769.88
2018-06-14T05:57:10.385Z,99766.38
2018-06-14T05:59:41.387Z,99759.02
2018-06-14T06:02:12.189Z,99761.72
2018-06-14T06:04:42.490Z,99770.86
2018-06-14T06:07:12.898Z,99770.02
2018-06-14T06:09:43.212Z,99767.98
2018-06-14T06:12:14.292Z,99771.56
2018-06-14T06:14:45.052Z,99776.95
2018-06-14T06:17:15.423Z,99765.09
2018-06-14T06:19:46.078Z,99776.39
2018-06-14T06:22:16.340Z,99772.39
2018-06-14T06:24:47.910Z,99771.06
2018-06-14T06:27:18.288Z,99769.31
2018-06-14T06:29:49.479Z,99761.64
2018-06-14T06:32:19.950Z,99770.64
2018-06-14T06:34:50.848Z,99770.19
2018-06-14T06:37:21.196Z,99773.88
2018-06-14T06:39:51.600Z,99770.02
2018-06-14T06:42:23.007Z,99772.82
2018-06-14T06:44:53.524Z,99772.39
2018-06-14T06:47:24.046Z,99770.39
2018-06-14T06:49:54.446Z,99767.81
2018-06-14T06:52:24.712Z,99763.33
2018-06-14T06:54:55.010Z,99763.53
2018-06-14T06:57:25.738Z,99763.25
2018-06-14T06:59:56.213Z,99769.17
2018-06-14T07:02:26.474Z,99770.23
2018-06-14T07:04:56.827Z,99767.63
2018-06-14T07:07:27.120Z,99764.66
2018-06-14T07:09:57.474Z,99757.84
2018-06-14T07:12:27.866Z,99760.70
2018-06-14T07:14:58.226Z,99757.81
2018-06-14T07:17:28.537Z,99753.34
2018-06-14T07:19:59.651Z,99762.70
2018-06-14T07:22:29.967Z,99755.34
2018-06-14T07:25:00.515Z,99758.07
2018-06-14T07:27:30.991Z,99752.52
2018-06-14T07:30:01.463Z,99751.91
2018-06-14T07:32:31.691Z,99747.13
2018-06-14T07:35:02.762Z,99754.91
2018-06-14T07:37:33.110Z,99748.41
2018-06-14T07:40:03.443Z,99751.37
2018-06-14T07:42:33.864Z,99755.84
2018-06-14T07:45:04.206Z,99752.80
2018-06-14T07:47:34.511Z,99750.39
2018-06-14T07:50:04.688Z,99750.02
2018-06-14T07:52:34.963Z,99755.28
2018-06-14T07:55:05.607Z,99754.16
2018-06-14T07:57:35.722Z,99760.22
2018-06-14T08:00:06.098Z,99763.23
2018-06-14T08:02:36.735Z,99764.87
2018-06-14T08:05:06.996Z,99770.00
2018-06-14T08:07:37.546Z,99771.34
2018-06-14T08:10:08.348Z,99772.07
2018-06-14T08:12:38.821Z,99783.19
2018-06-14T08:15:09.267Z,99779.76
2018-06-14T08:17:39.619Z,99775.89
2018-06-14T08:20:09.975Z,99782.44
2018-06-14T08:22:40.453Z,99775.55
2018-06-14T08:25:10.766Z,99777.81
2018-06-14T08:27:41.103Z,99781.42
2018-06-14T08:30:11.505Z,99781.80
2018-06-14T08:32:41.798Z,99779.96
2018-06-14T08:35:12.087Z,99783.03
2018-06-14T08:37:42.464Z,99784.31
2018-06-14T08:40:12.767Z,99783.36
2018-06-14T08:42:42.571Z,99781.07
2018-06-14T08:45:12.362Z,99778.09
2018-06-14T08:47:42.095Z,99784.05
2018-06-14T08:50:12.468Z,99785.92
2018-06-14T08:52:42.895Z,99783.89
2018-06-14T08:55:13.388Z,99792.73
2018-06-14T08:57:43.343Z,99793.44
2018-06-14T09:00:13.106Z,99790.88
2018-06-14T09:02:43.131Z,99791.83
2018-06-14T09:05:13.387Z,99787.25
2018-06-14T09:07:43.672Z,99783.60
2018-06-14T09:10:14.617Z,99785.66
2018-06-14T09:12:44.952Z,99788.34
2018-06-14T09:15:15.304Z,99790.26
2018-06-14T09:17:45.606Z,99787.39
2018-06-14T09:20:16.230Z,99786.52
2018-06-14T09:22:46.684Z,99792.09
2018-06-14T09:25:17.042Z,99787.44
2018-06-14T09:27:47.334Z,99785.63
2018-06-14T09:30:17.685Z,99787.73
2018-06-14T09:32:48.527Z,99780.66
2018-06-14T09:35:18.335Z,99788.14
2018-06-14T09:37:49.139Z,99794.50
2018-06-14T09:40:19.443Z,99792.52
2018-06-14T09:42:49.899Z,99793.50
2018-06-14T09:45:20.507Z,99791.17
2018-06-14T09:47:50.904Z,99797.66
2018-06-14T09:50:21.315Z,99796.21
2018-06-14T09:52:52.071Z,99795.61
2018-06-14T09:55:22.335Z,99797.98
2018-06-14T09:57:52.755Z,99795.28
2018-06-14T10:00:23.037Z,99799.39
2018-06-14T10:02:53.374Z,99796.78
2018-06-14T10:05:23.717Z,99795.27
2018-06-14T10:07:54.067Z,99800.28
2018-06-14T10:10:24.368Z,99796.17
2018-06-14T10:12:54.722Z,99798.47
2018-06-14T10:15:25.045Z,99799.20
2018-06-14T10:17:55.458Z,99797.95
2018-06-14T10:20:25.772Z,99798.42
2018-06-14T10:22:56.777Z,99798.34
2018-06-14T10:25:27.051Z,99799.11
2018-06-14T10:27:57.436Z,99794.09
2018-06-14T10:30:27.793Z,99795.13
2018-06-14T10:32:58.196Z,99796.03
2018-06-14T10:35:28.559Z,99797.55
2018-06-14T10:38:00.556Z,99795.20
2018-06-14T10:40:30.922Z,99800.11
2018-06-14T10:43:04.731Z,99793.77
2018-06-14T10:45:35.231Z,99793.16
2018-06-14T10:48:05.747Z,99793.00
2018-06-14T10:50:36.065Z,99792.95
2018-06-14T10:53:06.370Z,99789.63
2018-06-14T10:55:36.424Z,99785.40
2018-06-14T10:58:06.936Z,99792.76
2018-06-14T11:00:37.199Z,99787.66
2018-06-14T11:03:08.066Z,99793.41
2018-06-14T11:05:38.692Z,99783.85
2018-06-14T11:08:09.186Z,99788.90
2018-06-14T11:10:39.538Z,99788.06
2018-06-14T11:13:09.813Z,99789.04
2018-06-14T11:15:40.312Z,99781.14
2018-06-14T11:18:10.658Z,99778.15
2018-06-14T11:20:40.958Z,99778.61
2018-06-14T11:23:11.243Z,99784.00
2018-06-14T11:25:41.571Z,99780.59
2018-06-14T11:28:11.840Z,99780.25
2018-06-14T11:30:42.339Z,99772.81
2018-06-14T11:33:12.708Z,99780.08
2018-06-14T11:35:43.011Z,99779.27
2018-06-14T11:38:13.331Z,99782.22
2018-06-14T11:40:43.650Z,99777.81
2018-06-14T11:43:14.076Z,99781.33
2018-06-14T11:45:44.460Z,99780.35
2018-06-14T11:48:14.907Z,99778.27
2018-06-14T11:50:45.556Z,99773.46
2018-06-14T11:53:15.898Z,99781.39
2018-06-14T11:55:46.270Z,99781.58
2018-06-14T11:58:16.581Z,99776.42
2018-06-14T12:00:46.875Z,99774.48
2018-06-14T12:03:17.215Z,99772.70
2018-06-14T12:05:47.558Z,99780.06
2018-06-14T12:08:17.918Z,99770.47
2018-06-14T12:10:48.346Z,99774.17
2018-06-14T12:13:18.686Z,99777.26
2018-06-14T12:15:49.187Z,99777.02
2018-06-14T12:18:19.530Z,99776.72
2018-06-14T12:20:49.808Z,99773.94
2018-06-14T12:23:20.182Z,99769.55
2018-06-14T12:25:50.426Z,99767.27
2018-06-14T12:28:20.834Z,99767.61
2018-06-14T12:30:51.119Z,99759.29
2018-06-14T12:33:21.438Z,99764.78
2018-06-14T12:35:51.764Z,99761.02
2018-06-14T12:38:22.122Z,99763.83
2018-06-14T12:40:52.605Z,99763.27
2018-06-14T12:43:23.104Z,99759.97
2018-06-14T12:45:53.449Z,99761.09
2018-06-14T12:48:23.814Z,99761.27
2018-06-14T12:50:54.307Z,99766.00
2018-06-14T12:53:24.711Z,99764.14
2018-06-14T12:55:55.100Z,99765.61
2018-06-14T12:58:26.012Z,99759.57
2018-06-14T13:00:56.564Z,99756.27
2018-06-14T13:03:27.546Z,99750.55
2018-06-14T13:05:58.019Z,99752.76
2018-06-14T13:08:28.590Z,99748.34
2018-06-14T13:10:58.978Z,99745.86
2018-06-14T13:13:29.287Z,99745.70
2018-06-14T13:15:59.806Z,99740.74
2018-06-14T13:18:30.142Z,99745.56
2018-06-14T13:21:00.384Z,99742.82
2018-06-14T13:23:30.800Z,99743.00
2018-06-14T13:26:01.065Z,99740.50
2018-06-14T13:28:31.627Z,99734.39
2018-06-14T13:31:01.972Z,99740.09
2018-06-14T13:33:32.385Z,99731.28
2018-06-14T13:36:02.943Z,99730.70
2018-06-14T13:38:33.500Z,99729.83
2018-06-14T13:41:03.806Z,99733.72
2018-06-14T13:43:35.011Z,99733.77
2018-06-14T13:46:06.259Z,99725.45
2018-06-14T13:48:36.632Z,99726.02
2018-06-14T13:51:07.107Z,99725.45
2018-06-14T13:53:37.524Z,99723.30
2018-06-14T13:56:07.828Z,99723.69
2018-06-14T13:58:38.439Z,99716.05
2018-06-14T14:01:09.070Z,99714.62
2018-06-14T14:03:39.610Z,99713.08
2018-06-14T14:06:09.966Z,99715.91
2018-06-14T14:08:40.934Z,99710.33
2018-06-14T14:11:11.031Z,99710.09
2018-06-14T14:13:41.419Z,99713.88
2018-06-14T14:16:11.703Z,99705.32
2018-06-14T14:18:42.159Z,99716.56
2018-06-14T14:21:12.450Z,99709.94
2018-06-14T14:23:42.966Z,99714.61
2018-06-14T14:26:13.432Z,99708.21
2018-06-14T14:28:43.568Z,99702.47
2018-06-14T14:31:13.882Z,99702.02
2018-06-14T14:33:44.302Z,99705.71
2018-06-14T14:36:14.641Z,99710.91
2018-06-14T14:38:44.939Z,99710.47
2018-06-14T14:41:15.263Z,99708.25
2018-06-14T14:43:45.694Z,99702.59
2018-06-14T14:46:16.282Z,99700.93
2018-06-14T14:48:46.674Z,99703.69
2018-06-14T14:51:17.326Z,99702.03
2018-06-14T14:53:47.583Z,99702.86
2018-06-14T14:56:17.899Z,99703.84
2018-06-14T14:58:48.154Z,99703.25
2018-06-14T15:01:18.475Z,99696.72
2018-06-14T15:03:48.949Z,99695.70
2018-06-14T15:06:19.308Z,99692.48
2018-06-14T15:08:49.685Z,99692.41
2018-06-14T15:11:20.105Z,99692.09
2018-06-14T15:13:50.375Z,99690.73
2018-06-14T15:16:20.901Z,99693.38
2018-06-14T15:18:51.214Z,99687.34
2018-06-14T15:21:21.613Z,99689.19
2018-06-14T15:23:52.206Z,99689.47
2018-06-14T15:26:22.031Z,99685.03
2018-06-14T15:28:51.926Z,99684.38
2018-06-14T15:31:21.613Z,99685.55
2018-06-14T15:33:51.349Z,99678.47
2018-06-14T15:36:21.335Z,99682.07
2018-06-14T15:38:51.018Z,99681.00
2018-06-14T15:41:20.923Z,99688.47
2018-06-14T15:43:50.760Z,99682.90
2018-06-14T15:46:20.670Z,99685.62
2018-06-14T15:48:50.438Z,99682.89
2018-06-14T15:51:20.453Z,99677.19
2018-06-14T15:53:50.223Z,99681.53
2018-06-14T15:56:42.025Z,99681.83
2018-06-14T15:59:13.775Z,99675.81
2018-06-14T16:01:44.030Z,99673.56
2018-06-14T16:04:14.356Z,99666.82
2018-06-14T16:06:44.627Z,99666.82
2018-06-14T16:09:15.012Z,99665.53
2018-06-14T16:11:45.430Z,99666.63
2018-06-14T16:14:15.816Z,99666.34
2018-06-14T16:16:46.470Z,99664.59
2018-06-14T16:19:16.959Z,99663.79
2018-06-14T16:21:47.292Z,99660.50
2018-06-14T16:24:17.583Z,99647.17
2018-06-14T16:26:47.324Z,99655.86
2018-06-14T16:29:17.991Z,99659.44
2018-06-14T16:31:48.372Z,99655.09
2018-06-14T16:34:19.391Z,99661.16
2018-06-14T16:36:49.110Z,99656.33
2018-06-14T16:39:18.966Z,99660.03
2018-06-14T16:41:49.242Z,99656.33
2018-06-14T16:44:19.188Z,99662.26
2018-06-14T16:46:49.178Z,99666.99
2018-06-14T16:49:19.312Z,99668.77
2018-06-14T16:51:49.121Z,99666.70
2018-06-14T16:54:19.030Z,99662.70
2018-06-14T16:56:48.814Z,99674.30
2018-06-14T16:59:18.491Z,99672.82
2018-06-14T17:01:48.190Z,99684.36
2018-06-14T17:04:17.907Z,99685.30
2018-06-14T17:06:47.743Z,99679.64
2018-06-14T17:09:17.494Z,99685.59
2018-06-14T17:11:47.386Z,99684.86
2018-06-14T17:14:17.158Z,99682.18
2018-06-14T17:16:46.850Z,99689.83
2018-06-14T17:19:16.602Z,99688.87
2018-06-14T17:21:46.300Z,99693.84
2018-06-14T17:24:16.051Z,99695.55
2018-06-14T17:26:46.129Z,99698.27
2018-06-14T17:29:15.841Z,99696.07
2018-06-14T17:31:46.223Z,99700.48
2018-06-14T17:34:16.807Z,99699.73
2018-06-14T17:36:46.607Z,99700.34
2018-06-14T17:39:16.490Z,99703.27
2018-06-14T17:41:46.205Z,99706.05
2018-06-14T17:44:15.982Z,99714.80
2018-06-14T17:46:45.852Z,99708.00
2018-06-14T17:49:15.557Z,99704.53
2018-06-14T17:51:45.403Z,99706.73
2018-06-14T17:54:15.180Z,99707.30
2018-06-14T17:56:45.030Z,99710.91
2018-06-14T17:59:14.503Z,99713.10
2018-06-14T18:01:44.664Z,99712.32
2018-06-14T18:04:14.519Z,99716.44
2018-06-14T18:06:44.364Z,99713.48
2018-06-14T18:09:14.220Z,99713.28
2018-06-14T18:11:44.035Z,99713.30
2018-06-14T18:14:14.159Z,99718.17
2018-06-14T18:16:43.926Z,99713.30
2018-06-14T18:19:13.762Z,99713.89
2018-06-14T18:21:43.687Z,99709.33
2018-06-14T18:24:13.831Z,99714.27
2018-06-14T18:26:43.723Z,99713.47
2018-06-14T18:29:13.506Z,99715.70
2018-06-14T18:31:43.342Z,99713.81
2018-06-14T18:34:13.174Z,99712.22
2018-06-14T18:36:43.005Z,99705.72
2018-06-14T18:39:13.267Z,99706.27
2018-06-14T18:41:43.008Z,99714.67
2018-06-14T18:44:12.806Z,99701.91
2018-06-14T18:46:42.717Z,99714.38
2018-06-14T18:49:12.406Z,99720.55
2018-06-14T18:51:43.041Z,99719.47
2018-06-14T18:54:12.905Z,99730.48
2018-06-14T18:56:42.872Z,99728.25
2018-06-14T18:59:12.792Z,99727.94
2018-06-14T19:01:42.644Z,99731.14
2018-06-14T19:04:12.396Z,99735.11
2018-06-14T19:06:42.379Z,99732.03
2018-06-14T19:09:12.237Z,99737.84
2018-06-14T19:11:42.682Z,99737.48
2018-06-14T19:14:12.599Z,99744.39
2018-06-14T19:16:42.627Z,99742.08
2018-06-14T19:19:12.374Z,99747.64
2018-06-14T19:21:42.531Z,99749.28
2018-06-14T19:24:12.320Z,99751.63
2018-06-14T19:26:42.659Z,99755.29
2018-06-14T19:29:12.677Z,99757.09
2018-06-14T19:31:42.783Z,99761.07
2018-06-14T19:34:12.698Z,99764.70
2018-06-14T19:36:42.716Z,99756.55
2018-06-14T19:39:12.471Z,99763.61
2018-06-14T19:41:42.086Z,99764.91
2018-06-14T19:44:11.806Z,99767.47
2018-06-14T19:46:41.654Z,99775.33
2018-06-14T19:49:11.599Z,99776.91
2018-06-14T19:51:41.377Z,99773.50
2018-06-14T19:54:11.146Z,99776.06
2018-06-14T19:56:41.076Z,99772.27
2018-06-14T19:59:10.781Z,99764.17
2018-06-14T20:01:40.579Z,99770.92
2018-06-14T20:04:10.363Z,99773.11
2018-06-14T20:06:40.780Z,99775.22
2018-06-14T20:09:10.867Z,99781.99
2018-06-14T20:11:40.815Z,99778.48
2018-06-14T20:14:10.614Z,99788.88
2018-06-14T20:16:40.562Z,99785.31
2018-06-14T20:19:10.538Z,99786.55
2018-06-14T20:21:40.419Z,99783.90
2018-06-14T20:24:10.123Z,99779.83
2018-06-14T20:26:40.045Z,99785.69
2018-06-14T20:29:09.956Z,99782.66
2018-06-14T20:31:39.728Z,99789.42
2018-06-14T20:34:09.488Z,99789.95
2018-06-14T20:36:39.192Z,99791.74
2018-06-14T20:39:11.197Z,99794.19
2018-06-14T20:41:41.141Z,99792.08
2018-06-14T20:44:11.604Z,99793.22
2018-06-14T20:46:41.620Z,99793.93
2018-06-14T20:49:11.391Z,99794.56
2018-06-14T20:51:41.191Z,99795.73
2018-06-14T20:54:11.208Z,99797.64
2018-06-14T20:56:41.026Z,99800.48
2018-06-14T20:59:11.407Z,99798.18
2018-06-14T21:01:41.490Z,99800.38
2018-06-14T21:04:11.208Z,99805.25
2018-06-14T21:06:41.148Z,99807.25
2018-06-14T21:09:11.596Z,99808.50
2018-06-14T21:11:41.504Z,99810.97
2018-06-14T21:14:11.258Z,99808.27
2018-06-14T21:16:40.956Z,99810.23
2018-06-14T21:19:10.937Z,99810.11
2018-06-14T21:21:40.726Z,99813.43
2018-06-14T21:24:10.541Z,99813.59
2018-06-14T21:26:40.354Z,99809.92
2018-06-14T21:29:10.148Z,99820.61
2018-06-14T21:31:39.992Z,99819.38
2018-06-14T21:34:09.781Z,99822.30
2018-06-14T21:36:39.551Z,99823.60
2018-06-14T21:39:09.599Z,99819.48
2018-06-14T21:41:39.033Z,99818.01
2018-06-14T21:44:08.842Z,99825.63
2018-06-14T21:46:38.734Z,99825.95
2018-06-14T21:49:08.470Z,99824.57
2018-06-14T21:51:39.148Z,99830.02
2018-06-14T21:54:08.883Z,99828.41
2018-06-14T21:56:38.754Z,99831.67
2018-06-14T21:59:08.210Z,99839.14
2018-06-14T22:01:38.015Z,99835.52
2018-06-14T22:04:07.559Z,99838.41
2018-06-14T22:06:37.306Z,99840.89
2018-06-14T22:09:07.845Z,99846.55
2018-06-14T22:11:37.277Z,99842.64
2018-06-14T22:14:07.409Z,99841.70
2018-06-14T22:16:37.167Z,99838.87
2018-06-14T22:19:12.641Z,99831.63
2018-06-14T22:21:42.875Z,99833.72
2018-06-14T22:24:12.628Z,99825.86
2018-06-14T22:26:42.412Z,99832.58
2018-06-14T22:29:12.318Z,99836.48
2018-06-14T22:31:41.824Z,99831.53
2018-06-14T22:34:22.751Z,99843.05
2018-06-14T22:36:53.128Z,99846.05
2018-06-14T22:39:22.947Z,99848.59
2018-06-14T22:41:52.709Z,99853.31
2018-06-14T22:44:22.513Z,99850.83
2018-06-14T22:46:52.486Z,99851.45
2018-06-14T22:49:22.256Z,99850.98
2018-06-14T22:52:08.885Z,99857.17
2018-06-14T22:54:38.306Z,99846.58
2018-06-14T22:57:08.232Z,99847.20
2018-06-14T22:59:38.175Z,99845.85
2018-06-14T23:02:07.509Z,99848.59
2018-06-14T23:04:37.322Z,99847.84
2018-06-14T23:07:07.000Z,99851.27
2018-06-14T23:10:45.870Z,99836.98
2018-06-14T23:13:18.321Z,99847.83
2018-06-14T23:15:48.243Z,99849.77
2018-06-14T23:18:18.054Z,99848.95
2018-06-14T23:20:47.812Z,99845.74
2018-06-14T23:23:17.634Z,99848.42
2018-06-14T23:25:47.506Z,99854.23
2018-06-14T23:28:17.259Z,99855.87
2018-06-14T23:30:47.037Z,99855.94
2018-06-14T23:33:16.722Z,99844.56
2018-06-14T23:35:46.459Z,99852.08
2018-06-14T23:38:16.210Z,99853.88
2018-06-14T23:40:45.892Z,99848.81
2018-06-14T23:43:15.739Z,99852.14
2018-06-14T23:45:45.465Z,99853.26
2018-06-14T23:48:15.276Z,99849.77
2018-06-14T23:50:44.954Z,99849.92
2018-06-14T23:53:14.644Z,99846.25
2018-06-14T23:55:44.459Z,99844.90
2018-06-14T23:58:14.444Z,99842.59
